]idnight River — HP7399 — position and weather

sailwx.info

Track history (hours):
 
Tides and Currents Weather Stations Pressure Air Temp Water Temp Dewpoint Dewpoint Depression Visibility Wind Speed Wind Dir Waves Ship Positions

]idnight River

Last reported at 2014-Nov-16 07:33 UTC. Time now 2014-Nov-23 13:15 UTC.
Position N 18°08' W 063°28'.

Type: Ship. MMSI: 352319000.

Date/timePositionNaut miles runAvg speedWind from/ knotsBaromVisibWave heightAir tempDewpointWater temp
2014-Nov-16 07:33N 18°08' W 063°28'1010.0
2014-Nov-16 06:31N 18°06' W 063°18'12 9.6
2014-Nov-16 05:16N 18°05' W 063°05'0 0.0
2014-Nov-16 04:14N 18°05' W 063°05'0 0.0
2014-Nov-16 03:27N 18°05' W 063°05'0 0.0
2014-Nov-16 02:33N 18°05' W 063°05'0 0.0
2014-Nov-16 01:10N 18°05' W 063°05'0 0.0
2014-Nov-16 00:23N 18°05' W 063°05'0 0.0
2014-Nov-15 23:31N 18°05' W 063°05'0 0.0
2014-Nov-15 22:14N 18°05' W 063°05'0 0.0
2014-Nov-15 21:29N 18°05' W 063°05'0 0.0
2014-Nov-15 20:24N 18°05' W 063°05'0 0.0
2014-Nov-15 19:33N 18°05' W 063°05'0 0.0
2014-Nov-15 18:20N 18°05' W 063°05'1 0.1
2014-Nov-15 07:19N 18°06' W 063°05'1 0.8
2014-Nov-15 06:26N 18°05' W 063°05'0 0.0
2014-Nov-15 05:16N 18°05' W 063°05'0 0.0
2014-Nov-15 04:24N 18°05' W 063°05'0 0.0
2014-Nov-15 03:33N 18°05' W 063°05'0 0.0
2014-Nov-15 02:25N 18°05' W 063°05'0 0.0
2014-Nov-15 01:27N 18°05' W 063°05'0 0.0
2014-Nov-15 00:32N 18°05' W 063°05'0 0.0
2014-Nov-14 23:31N 18°05' W 063°05'0 0.0
2014-Nov-14 22:30N 18°05' W 063°05'0 0.0
2014-Nov-14 21:22N 18°05' W 063°05'0 0.0
2014-Nov-14 20:30N 18°05' W 063°05'0 0.0
2014-Nov-14 19:33N 18°05' W 063°05'0 0.0
2014-Nov-14 07:29N 18°05' W 063°05'0 0.0
2014-Nov-14 06:27N 18°05' W 063°05'0 0.0
2014-Nov-14 05:13N 18°05' W 063°05'0 0.0
2014-Nov-14 03:32N 18°05' W 063°05'0 0.0
2014-Nov-14 02:33N 18°05' W 063°05'0 0.0
2014-Nov-14 01:24N 18°05' W 063°05'0 0.1
2014-Nov-14 00:10N 18°05' W 063°05'5 7.9
2014-Nov-13 23:32N 18°03' W 063°10'1010.3
2014-Nov-13 22:32N 17°53' W 063°12'5 0.3
2014-Nov-13 06:31N 17°52' W 063°07'8 6.9
2014-Nov-13 05:21N 18°00' W 063°09'6 3.4
2014-Nov-13 03:33N 18°05' W 063°05'0 0.0
2014-Nov-13 02:14N 18°05' W 063°05'0 0.0
2014-Nov-13 01:28N 18°05' W 063°05'0 0.0
2014-Nov-13 00:26N 18°05' W 063°05'0 0.0
2014-Nov-12 23:32N 18°05' W 063°05'0 0.0
2014-Nov-12 21:25N 18°05' W 063°05'0 0.0
2014-Nov-12 20:24N 18°05' W 063°05'0 0.0
2014-Nov-12 18:14N 18°05' W 063°05'0 0.0
2014-Nov-12 17:32N 18°05' W 063°05'1 0.1
2014-Nov-12 07:27N 18°06' W 063°05'1 0.6
2014-Nov-12 06:06N 18°05' W 063°05'0 0.0
2014-Nov-12 05:27N 18°05' W 063°05'0 0.0
2014-Nov-12 04:31N 18°05' W 063°05'0 0.0
2014-Nov-12 03:30N 18°05' W 063°05'0 0.0
2014-Nov-12 02:31N 18°05' W 063°05'0 0.0
2014-Nov-12 01:27N 18°05' W 063°05'0 0.0
2014-Nov-12 00:32N 18°05' W 063°05'0 0.0
2014-Nov-11 23:32N 18°05' W 063°05'0 0.0
2014-Nov-11 22:31N 18°05' W 063°05'0 0.2
2014-Nov-11 21:29N 18°05' W 063°05'0 0.0
2014-Nov-11 20:26N 18°05' W 063°05'0 0.0
2014-Nov-11 19:27N 18°05' W 063°05'0 0.0
2014-Nov-11 18:28N 18°05' W 063°05'0 0.0
2014-Nov-11 17:29N 18°05' W 063°05'0 0.0
2014-Nov-11 16:22N 18°05' W 063°05'0 0.0
2014-Nov-11 15:19N 18°05' W 063°05'0 0.0
2014-Nov-11 14:33N 18°05' W 063°05'0 0.0
2014-Nov-11 13:04N 18°05' W 063°05'0 0.0
2014-Nov-11 12:26N 18°05' W 063°05'0 0.0
2014-Nov-11 11:29N 18°05' W 063°05'0 0.0
2014-Nov-11 10:30N 18°05' W 063°05'0 0.0
2014-Nov-11 09:33N 18°05' W 063°05'0 0.0
2014-Nov-11 08:33N 18°05' W 063°05'0 0.0
2014-Nov-11 07:31N 18°05' W 063°05'0 0.0
2014-Nov-11 06:33N 18°05' W 063°05'0 0.0
2014-Nov-11 05:30N 18°05' W 063°05'0 0.0
2014-Nov-11 04:19N 18°05' W 063°05'0 0.3
2014-Nov-11 03:31N 18°05' W 063°05'0 0.0
2014-Nov-11 02:33N 18°05' W 063°05'4 3.7
2014-Nov-11 01:32N 18°07' W 063°08'5 1.4
2014-Nov-10 22:06N 18°12' W 063°09'5 9.8
2014-Nov-10 21:33N 18°12' W 063°14'9 8.8
2014-Nov-10 20:33N 18°13' W 063°23'12 0.4
2014-Nov-09 12:32N 18°08' W 063°35'10 9.9
2014-Nov-09 11:33N 18°07' W 063°25'1010.1
2014-Nov-09 10:33N 18°06' W 063°14'9 8.6
2014-Nov-09 09:33N 18°05' W 063°05'0 0.0
2014-Nov-09 08:31N 18°05' W 063°05'3 3.6
2014-Nov-09 07:33N 18°06' W 063°09'9 8.9
2014-Nov-09 06:33N 18°08' W 063°18'9 8.9
2014-Nov-09 05:32N 18°10' W 063°27'  
2014-Nov-07 01:31N 18°12' W 063°25'1010.1
2014-Nov-07 00:29N 18°08' W 063°14'9 9.7
2014-Nov-06 23:31N 18°05' W 063°05'0 0.1
2014-Nov-06 22:32N 18°05' W 063°05'0 0.0
2014-Nov-06 21:27N 18°05' W 063°05'6 0.5
2014-Nov-06 08:32N 17°59' W 063°02'  
Track history (hours):
 
Tides and Currents Weather Stations Pressure Air Temp Water Temp Dewpoint Dewpoint Depression Visibility Wind Speed Wind Dir Waves Ship Positions

]idnight River

Last reported at 2014-Nov-16 07:33 UTC. Time now 2014-Nov-23 13:15 UTC.
Position N 18°08' W 063°28'.

Type: Ship. MMSI: 352319000.

Date/timePositionNaut miles runAvg speedWind from/ knotsBaromVisibWave heightAir tempDewpointWater temp
2014-Nov-16 07:33N 18°08' W 063°28'1010.0
2014-Nov-16 06:31N 18°06' W 063°18'12 9.6
2014-Nov-16 05:16N 18°05' W 063°05'0 0.0
2014-Nov-16 04:14N 18°05' W 063°05'0 0.0
2014-Nov-16 03:27N 18°05' W 063°05'0 0.0
2014-Nov-16 02:33N 18°05' W 063°05'0 0.0
2014-Nov-16 01:10N 18°05' W 063°05'0 0.0
2014-Nov-16 00:23N 18°05' W 063°05'0 0.0
2014-Nov-15 23:31N 18°05' W 063°05'0 0.0
2014-Nov-15 22:14N 18°05' W 063°05'0 0.0
2014-Nov-15 21:29N 18°05' W 063°05'0 0.0
2014-Nov-15 20:24N 18°05' W 063°05'0 0.0
2014-Nov-15 19:33N 18°05' W 063°05'0 0.0
2014-Nov-15 18:20N 18°05' W 063°05'1 0.1
2014-Nov-15 07:19N 18°06' W 063°05'1 0.8
2014-Nov-15 06:26N 18°05' W 063°05'0 0.0
2014-Nov-15 05:16N 18°05' W 063°05'0 0.0
2014-Nov-15 04:24N 18°05' W 063°05'0 0.0
2014-Nov-15 03:33N 18°05' W 063°05'0 0.0
2014-Nov-15 02:25N 18°05' W 063°05'0 0.0
2014-Nov-15 01:27N 18°05' W 063°05'0 0.0
2014-Nov-15 00:32N 18°05' W 063°05'0 0.0
2014-Nov-14 23:31N 18°05' W 063°05'0 0.0
2014-Nov-14 22:30N 18°05' W 063°05'0 0.0
2014-Nov-14 21:22N 18°05' W 063°05'0 0.0
2014-Nov-14 20:30N 18°05' W 063°05'0 0.0
2014-Nov-14 19:33N 18°05' W 063°05'0 0.0
2014-Nov-14 07:29N 18°05' W 063°05'0 0.0
2014-Nov-14 06:27N 18°05' W 063°05'0 0.0
2014-Nov-14 05:13N 18°05' W 063°05'0 0.0
2014-Nov-14 03:32N 18°05' W 063°05'0 0.0
2014-Nov-14 02:33N 18°05' W 063°05'0 0.0
2014-Nov-14 01:24N 18°05' W 063°05'0 0.1
2014-Nov-14 00:10N 18°05' W 063°05'5 7.9
2014-Nov-13 23:32N 18°03' W 063°10'1010.3
2014-Nov-13 22:32N 17°53' W 063°12'5 0.3
2014-Nov-13 06:31N 17°52' W 063°07'8 6.9
2014-Nov-13 05:21N 18°00' W 063°09'6 3.4
2014-Nov-13 03:33N 18°05' W 063°05'0 0.0
2014-Nov-13 02:14N 18°05' W 063°05'0 0.0
2014-Nov-13 01:28N 18°05' W 063°05'0 0.0
2014-Nov-13 00:26N 18°05' W 063°05'0 0.0
2014-Nov-12 23:32N 18°05' W 063°05'0 0.0
2014-Nov-12 21:25N 18°05' W 063°05'0 0.0
2014-Nov-12 20:24N 18°05' W 063°05'0 0.0
2014-Nov-12 18:14N 18°05' W 063°05'0 0.0
2014-Nov-12 17:32N 18°05' W 063°05'1 0.1
2014-Nov-12 07:27N 18°06' W 063°05'1 0.6
2014-Nov-12 06:06N 18°05' W 063°05'0 0.0
2014-Nov-12 05:27N 18°05' W 063°05'0 0.0
2014-Nov-12 04:31N 18°05' W 063°05'0 0.0
2014-Nov-12 03:30N 18°05' W 063°05'0 0.0
2014-Nov-12 02:31N 18°05' W 063°05'0 0.0
2014-Nov-12 01:27N 18°05' W 063°05'0 0.0
2014-Nov-12 00:32N 18°05' W 063°05'0 0.0
2014-Nov-11 23:32N 18°05' W 063°05'0 0.0
2014-Nov-11 22:31N 18°05' W 063°05'0 0.2
2014-Nov-11 21:29N 18°05' W 063°05'0 0.0
2014-Nov-11 20:26N 18°05' W 063°05'0 0.0
2014-Nov-11 19:27N 18°05' W 063°05'0 0.0
2014-Nov-11 18:28N 18°05' W 063°05'0 0.0
2014-Nov-11 17:29N 18°05' W 063°05'0 0.0
2014-Nov-11 16:22N 18°05' W 063°05'0 0.0
2014-Nov-11 15:19N 18°05' W 063°05'0 0.0
2014-Nov-11 14:33N 18°05' W 063°05'0 0.0
2014-Nov-11 13:04N 18°05' W 063°05'0 0.0
2014-Nov-11 12:26N 18°05' W 063°05'0 0.0
2014-Nov-11 11:29N 18°05' W 063°05'0 0.0
2014-Nov-11 10:30N 18°05' W 063°05'0 0.0
2014-Nov-11 09:33N 18°05' W 063°05'0 0.0
2014-Nov-11 08:33N 18°05' W 063°05'0 0.0
2014-Nov-11 07:31N 18°05' W 063°05'0 0.0
2014-Nov-11 06:33N 18°05' W 063°05'0 0.0
2014-Nov-11 05:30N 18°05' W 063°05'0 0.0
2014-Nov-11 04:19N 18°05' W 063°05'0 0.3
2014-Nov-11 03:31N 18°05' W 063°05'0 0.0
2014-Nov-11 02:33N 18°05' W 063°05'4 3.7
2014-Nov-11 01:32N 18°07' W 063°08'5 1.4
2014-Nov-10 22:06N 18°12' W 063°09'5 9.8
2014-Nov-10 21:33N 18°12' W 063°14'9 8.8
2014-Nov-10 20:33N 18°13' W 063°23'12 0.4
2014-Nov-09 12:32N 18°08' W 063°35'10 9.9
2014-Nov-09 11:33N 18°07' W 063°25'1010.1
2014-Nov-09 10:33N 18°06' W 063°14'9 8.6
2014-Nov-09 09:33N 18°05' W 063°05'0 0.0
2014-Nov-09 08:31N 18°05' W 063°05'3 3.6
2014-Nov-09 07:33N 18°06' W 063°09'9 8.9
2014-Nov-09 06:33N 18°08' W 063°18'9 8.9
2014-Nov-09 05:32N 18°10' W 063°27'  
2014-Nov-07 01:31N 18°12' W 063°25'1010.1
2014-Nov-07 00:29N 18°08' W 063°14'9 9.7
2014-Nov-06 23:31N 18°05' W 063°05'0 0.1
2014-Nov-06 22:32N 18°05' W 063°05'0 0.0
2014-Nov-06 21:27N 18°05' W 063°05'6 0.5
2014-Nov-06 08:32N 17°59' W 063°02'  

Dump ship's entire track history